Time;durP1;ratioP1;P1;durP2;ratioP2;P2;SDS_P1;SDS_P2;PMS_P1;PMS_P2;Temp;Humidity;BMP_temperature;BMP_pressure;BME280_temperature;BME280_humidity;BME280_pressure;Samples;Min_cycle;Max_cycle;Signal;HPM_P1;HPM_P2
2021/12/04 00:02:08;;;;;;;3.08;2.00;;;3.80;99.90;;;;;;5076788;28;20223;-67
2021/12/04 00:04:37;;;;;;;6.55;2.28;;;3.80;99.90;;;;;;5076015;28;20203;-67
2021/12/04 00:07:06;;;;;;;2.05;1.90;;;3.80;99.90;;;;;;5076659;28;20253;-67
2021/12/04 00:09:34;;;;;;;2.92;2.67;;;3.80;99.90;;;;;;5076038;28;20260;-67
2021/12/04 00:12:02;;;;;;;5.43;1.83;;;3.80;99.90;;;;;;5075761;28;20200;-67
2021/12/04 00:14:30;;;;;;;1.70;1.60;;;3.70;99.90;;;;;;5076025;28;20207;-67
2021/12/04 00:16:57;;;;;;;2.80;1.73;;;3.80;99.90;;;;;;5076339;28;20215;-67
2021/12/04 00:19:24;;;;;;;2.47;1.70;;;3.80;99.90;;;;;;5076370;28;20563;-67
2021/12/04 00:21:52;;;;;;;3.92;1.75;;;3.80;99.90;;;;;;5075792;28;20228;-67
2021/12/04 00:24:19;;;;;;;1.80;1.70;;;3.70;99.90;;;;;;5076071;28;20253;-67
2021/12/04 00:26:46;;;;;;;2.45;2.00;;;3.70;99.90;;;;;;5074523;28;20687;-67
2021/12/04 00:29:13;;;;;;;1.90;1.80;;;3.70;99.90;;;;;;5075700;28;20203;-67
2021/12/04 00:31:47;;;;;;;1.73;1.52;;;3.70;99.90;;;;;;5075822;28;20212;-67
2021/12/04 00:34:14;;;;;;;3.30;1.58;;;3.70;99.90;;;;;;5075839;28;20207;-67
2021/12/04 00:50:14;;;;;;;1.80;1.70;;;3.70;99.90;;;;;;5075476;28;20228;-67
2021/12/04 00:52:41;;;;;;;2.28;2.08;;;3.60;99.90;;;;;;5075830;28;20219;-67
2021/12/04 00:55:08;;;;;;;2.22;1.90;;;3.60;99.90;;;;;;5075748;28;20220;-67
2021/12/04 00:57:34;;;;;;;2.30;2.10;;;3.60;99.90;;;;;;5075890;28;20204;-66
2021/12/04 01:00:01;;;;;;;9.00;2.30;;;3.60;99.90;;;;;;5075836;28;20542;-66
2021/12/04 01:02:28;;;;;;;3.33;2.47;;;3.60;99.90;;;;;;5075845;28;20231;-67
2021/12/04 01:04:54;;;;;;;2.20;2.10;;;3.50;99.90;;;;;;5075749;28;20202;-67
2021/12/04 01:07:21;;;;;;;2.42;2.22;;;3.40;99.90;;;;;;5075463;28;20207;-67
2021/12/04 01:09:47;;;;;;;3.72;2.10;;;3.30;99.90;;;;;;5075385;28;20253;-67
2021/12/04 01:12:14;;;;;;;4.13;2.85;;;3.20;99.90;;;;;;5075202;28;20211;-67
2021/12/04 01:14:40;;;;;;;2.45;2.25;;;3.20;99.90;;;;;;5075151;28;20204;-68
2021/12/04 01:17:08;;;;;;;2.42;2.22;;;3.10;99.90;;;;;;5074903;28;20214;-67
2021/12/04 01:19:36;;;;;;;6.60;2.40;;;3.00;99.90;;;;;;5074778;28;20204;-67
2021/12/04 01:22:04;;;;;;;2.40;2.20;;;2.90;99.90;;;;;;5075077;28;20741;-67
2021/12/04 01:24:31;;;;;;;11.25;3.35;;;2.80;99.90;;;;;;5075093;28;20249;-67
2021/12/04 01:26:58;;;;;;;5.53;2.88;;;2.70;99.90;;;;;;5075080;28;20249;-67
2021/12/04 01:29:24;;;;;;;11.52;3.33;;;2.70;99.90;;;;;;5073319;28;20196;-67
2021/12/04 01:31:51;;;;;;;6.20;3.22;;;2.70;99.90;;;;;;5075039;28;20211;-67
2021/12/04 01:34:17;;;;;;;4.30;2.95;;;2.60;99.90;;;;;;5074507;28;20238;-68
2021/12/04 01:36:44;;;;;;;3.97;2.97;;;2.50;99.90;;;;;;5075041;28;20207;-68
2021/12/04 01:39:11;;;;;;;3.45;2.42;;;2.40;99.90;;;;;;5074784;28;20272;-68
2021/12/04 01:41:38;;;;;;;3.42;3.13;;;2.30;99.90;;;;;;5073294;28;20226;-68
2021/12/04 01:44:05;;;;;;;3.90;3.00;;;2.20;99.90;;;;;;5074854;28;20283;-68
2021/12/04 01:46:33;;;;;;;5.78;3.83;;;2.20;99.90;;;;;;5074492;28;20203;-68
2021/12/04 01:49:00;;;;;;;3.97;3.08;;;2.20;99.90;;;;;;5074227;28;20200;-67
2021/12/04 01:51:27;;;;;;;3.80;3.47;;;2.20;99.90;;;;;;5074118;28;20308;-68
2021/12/04 01:53:53;;;;;;;3.50;3.20;;;2.10;99.90;;;;;;5074319;28;20722;-67
2021/12/04 01:56:21;;;;;;;5.00;4.30;;;2.10;99.90;;;;;;5073885;28;20199;-68
2021/12/04 01:58:47;;;;;;;5.40;3.97;;;2.00;99.90;;;;;;5074451;28;20260;-68
2021/12/04 02:01:14;;;;;;;6.32;4.00;;;2.00;99.90;;;;;;5074416;28;20220;-68
2021/12/04 02:03:40;;;;;;;5.20;4.03;;;2.00;99.90;;;;;;5074237;28;20310;-69
2021/12/04 02:06:06;;;;;;;5.95;4.00;;;2.00;99.90;;;;;;5073633;28;20203;-69
2021/12/04 02:08:33;;;;;;;6.97;4.20;;;2.00;99.90;;;;;;5073935;28;20246;-69
2021/12/04 02:11:00;;;;;;;10.43;4.18;;;2.10;99.90;;;;;;5073942;28;20733;-69
2021/12/04 02:13:27;;;;;;;6.38;4.45;;;2.00;99.90;;;;;;5072458;28;20199;-69
2021/12/04 02:15:53;;;;;;;5.90;4.47;;;2.00;99.90;;;;;;5074153;28;20294;-69
2021/12/04 02:18:21;;;;;;;5.05;4.35;;;2.00;99.90;;;;;;5073565;28;20204;-69
2021/12/04 02:20:49;;;;;;;7.72;5.53;;;2.10;99.90;;;;;;5073726;28;20227;-69
2021/12/04 02:23:16;;;;;;;6.55;5.38;;;2.10;99.90;;;;;;5073905;28;20199;-69
2021/12/04 02:25:42;;;;;;;6.45;4.72;;;2.10;99.90;;;;;;5074128;28;20204;-69
2021/12/04 02:28:11;;;;;;;6.53;4.60;;;2.10;99.90;;;;;;5073908;28;20206;-69
2021/12/04 02:30:40;;;;;;;6.13;5.22;;;2.10;99.90;;;;;;5073518;28;20682;-69
2021/12/04 02:33:14;;;;;;;5.57;4.88;;;2.10;99.90;;;;;;5073779;28;20269;-69
2021/12/04 02:35:51;;;;;;;6.57;5.38;;;2.10;99.90;;;;;;5072573;28;20204;-69
2021/12/04 02:38:23;;;;;;;8.40;5.15;;;2.10;99.90;;;;;;5073481;28;20191;-69
2021/12/04 02:40:50;;;;;;;7.10;5.45;;;2.20;99.90;;;;;;5073466;28;20219;-69
2021/12/04 02:43:17;;;;;;;6.35;5.38;;;2.20;99.90;;;;;;5073777;28;20204;-69
2021/12/04 02:45:44;;;;;;;6.78;4.85;;;2.20;99.90;;;;;;5073680;28;20215;-69
2021/12/04 02:48:11;;;;;;;7.47;5.07;;;2.20;99.90;;;;;;5073590;28;20647;-69
2021/12/04 02:50:39;;;;;;;9.13;4.97;;;2.20;99.90;;;;;;5073372;28;20273;-69
2021/12/04 02:53:05;;;;;;;5.90;5.10;;;2.20;99.90;;;;;;5073769;28;20545;-69
2021/12/04 02:55:32;;;;;;;8.75;6.65;;;2.30;99.90;;;;;;5073664;28;20202;-69
2021/12/04 02:57:59;;;;;;;13.98;8.52;;;2.30;99.90;;;;;;5072106;28;20204;-69
2021/12/04 03:00:26;;;;;;;11.10;7.00;;;2.30;99.90;;;;;;5073314;28;20200;-69
2021/12/04 03:02:55;;;;;;;5.93;5.05;;;2.30;99.90;;;;;;5072877;28;20224;-69
2021/12/04 03:05:28;;;;;;;13.32;5.50;;;2.30;99.90;;;;;;5073042;28;20203;-69
2021/12/04 03:07:57;;;;;;;8.40;6.30;;;2.40;99.90;;;;;;5073018;28;20237;-69
2021/12/04 03:10:24;;;;;;;6.30;5.70;;;2.40;99.90;;;;;;5073112;28;20200;-69
2021/12/04 03:12:51;;;;;;;6.55;5.95;;;2.40;99.90;;;;;;5072935;28;20262;-69
2021/12/04 03:15:20;;;;;;;8.10;7.00;;;2.50;99.90;;;;;;5072783;28;20199;-69
2021/12/04 03:17:47;;;;;;;9.80;6.40;;;2.50;99.90;;;;;;5073002;28;20241;-69
2021/12/04 03:20:13;;;;;;;8.60;6.40;;;2.50;99.90;;;;;;5072929;28;20200;-68
2021/12/04 03:22:41;;;;;;;7.40;6.03;;;2.40;99.90;;;;;;5072670;28;20220;-68
2021/12/04 03:25:08;;;;;;;7.63;6.82;;;2.40;99.90;;;;;;5072431;28;20196;-68
2021/12/04 03:27:34;;;;;;;7.22;6.55;;;2.50;99.90;;;;;;5072475;28;20196;-69
2021/12/04 03:30:06;;;;;;;7.85;6.78;;;2.40;99.90;;;;;;5075839;28;20207;-69
2021/12/04 03:43:01;;;;;;;9.98;6.45;;;2.60;99.90;;;;;;5076742;28;20223;-69
2021/12/04 03:45:27;;;;;;;8.70;6.40;;;2.50;99.90;;;;;;5076378;28;20564;-69
2021/12/04 03:48:05;;;;;;;10.35;7.15;;;2.50;99.90;;;;;;5076065;28;20196;-69
2021/12/04 03:50:32;;;;;;;13.32;8.35;;;2.50;99.90;;;;;;5076096;28;20234;-69
2021/12/04 03:52:59;;;;;;;9.75;6.82;;;2.50;99.90;;;;;;5076286;28;20208;-69
2021/12/04 03:55:25;;;;;;;8.30;7.20;;;2.50;99.90;;;;;;5076125;28;20200;-69
2021/12/04 03:57:52;;;;;;;9.43;7.05;;;2.60;99.90;;;;;;5076364;28;20223;-69
2021/12/04 04:00:19;;;;;;;9.15;6.75;;;2.60;99.90;;;;;;5076198;28;20207;-69
2021/12/04 04:02:46;;;;;;;10.48;8.35;;;2.60;99.90;;;;;;5076131;28;20679;-69
2021/12/04 04:05:13;;;;;;;9.52;6.97;;;2.60;99.90;;;;;;5075800;28;20600;-69
2021/12/04 04:07:39;;;;;;;12.60;7.93;;;2.60;99.90;;;;;;5076052;28;20200;-69
2021/12/04 04:10:07;;;;;;;9.10;7.70;;;2.70;99.90;;;;;;5075866;28;20643;-69
2021/12/04 04:12:33;;;;;;;11.02;7.57;;;2.70;99.90;;;;;;5075970;28;20264;-68
2021/12/04 04:15:00;;;;;;;10.35;9.05;;;2.60;99.90;;;;;;5074357;28;20207;-68
2021/12/04 04:17:31;;;;;;;12.82;7.82;;;2.60;99.90;;;;;;5074818;28;20207;-68
2021/12/04 04:19:57;;;;;;;8.55;7.35;;;2.50;99.90;;;;;;5075999;28;20188;-67
2021/12/04 04:22:24;;;;;;;11.73;8.20;;;2.60;99.90;;;;;;5075802;28;20219;-67
2021/12/04 04:24:50;;;;;;;11.50;8.50;;;2.60;99.90;;;;;;5075719;28;20199;-67
2021/12/04 04:27:17;;;;;;;11.27;7.90;;;2.60;99.90;;;;;;5075895;28;20681;-66
2021/12/04 04:29:43;;;;;;;11.43;8.27;;;2.60;99.90;;;;;;5075779;28;20207;-66
2021/12/04 04:32:10;;;;;;;11.02;8.27;;;2.60;99.90;;;;;;5075600;28;20203;-66
2021/12/04 04:34:38;;;;;;;11.50;9.00;;;2.60;99.90;;;;;;5075574;28;20215;-66
2021/12/04 04:40:08;;;;;;;10.60;8.10;;;2.70;99.90;;;;;;5075594;28;20181;-66
2021/12/04 05:12:30;;;;;;;6.90;5.75;;;2.90;99.90;;;;;;5074655;28;20196;-69
2021/12/04 05:14:58;;;;;;;8.20;6.28;;;2.90;99.90;;;;;;5073400;28;20206;-69
2021/12/04 05:20:14;;;;;;;7.40;5.18;;;2.80;99.90;;;;;;5074720;28;20245;-65
2021/12/04 05:22:40;;;;;;;7.82;6.43;;;2.80;99.90;;;;;;5074518;28;20231;-67
2021/12/04 05:25:08;;;;;;;8.50;6.28;;;2.70;99.90;;;;;;5074610;28;20204;-67
2021/12/04 05:27:35;;;;;;;7.95;6.35;;;2.70;99.90;;;;;;5056704;28;20192;-67
2021/12/04 05:30:03;;;;;;;8.18;6.15;;;2.70;99.90;;;;;;5073354;28;20203;-67
2021/12/04 05:32:29;;;;;;;8.65;6.35;;;2.80;99.90;;;;;;5074038;28;20199;-69
2021/12/04 05:34:56;;;;;;;8.45;5.88;;;2.80;99.90;;;;;;5074344;28;20280;-68
2021/12/04 05:37:22;;;;;;;9.55;6.28;;;2.70;99.90;;;;;;5073283;28;20200;-68
2021/12/04 05:39:49;;;;;;;6.47;5.78;;;2.80;99.90;;;;;;5074317;28;20252;-67
2021/12/04 05:42:15;;;;;;;7.55;5.30;;;2.80;99.90;;;;;;5074181;28;20571;-68
2021/12/04 05:44:43;;;;;;;7.03;5.00;;;2.70;99.90;;;;;;5074029;28;20623;-67
2021/12/04 05:55:16;;;;;;;6.20;5.60;;;2.70;99.90;;;;;;5074177;28;20247;-68
2021/12/04 05:57:43;;;;;;;9.07;6.30;;;2.80;99.90;;;;;;5073881;28;20730;-68
2021/12/04 06:00:17;;;;;;;11.50;7.10;;;2.80;99.90;;;;;;5074057;28;20215;-68
2021/12/04 06:02:44;;;;;;;13.07;7.97;;;2.80;99.90;;;;;;5074202;28;20703;-68
2021/12/04 06:05:11;;;;;;;8.68;7.10;;;2.80;99.90;;;;;;5074192;28;20196;-68
2021/12/04 06:07:37;;;;;;;10.32;7.80;;;2.80;99.90;;;;;;5073768;28;20196;-68
2021/12/04 06:10:06;;;;;;;8.88;7.28;;;2.80;99.90;;;;;;5073969;28;20256;-68
2021/12/04 06:12:32;;;;;;;10.82;7.30;;;2.80;99.90;;;;;;5073592;28;20204;-68
2021/12/04 06:14:59;;;;;;;9.00;7.70;;;2.80;99.90;;;;;;5072246;28;20204;-68
2021/12/04 06:17:28;;;;;;;9.85;7.63;;;2.70;99.90;;;;;;5073761;28;20253;-68
2021/12/04 06:22:41;;;;;;;9.65;8.10;;;2.70;99.90;;;;;;5073383;28;20207;-68
2021/12/04 06:25:19;;;;;;;10.35;8.40;;;2.70;99.90;;;;;;5073396;28;20192;-68
2021/12/04 06:27:46;;;;;;;14.40;9.00;;;2.70;99.90;;;;;;5073390;28;20256;-68
2021/12/04 06:30:16;;;;;;;12.50;9.40;;;2.70;99.90;;;;;;5073348;28;20253;-68
2021/12/04 06:32:46;;;;;;;10.85;7.70;;;2.80;99.90;;;;;;5073189;28;20200;-68
2021/12/04 06:35:13;;;;;;;12.38;8.15;;;2.70;99.90;;;;;;5073007;28;20682;-68
2021/12/04 06:37:40;;;;;;;11.63;9.60;;;2.80;99.90;;;;;;5073146;28;20261;-68
2021/12/04 06:40:08;;;;;;;12.50;9.05;;;2.80;99.90;;;;;;5073262;28;20195;-68
2021/12/04 06:42:35;;;;;;;10.63;8.80;;;2.80;99.90;;;;;;5073286;28;20212;-68
2021/12/04 06:45:02;;;;;;;9.32;8.10;;;2.80;99.90;;;;;;5073222;28;20207;-68
2021/12/04 06:47:30;;;;;;;9.48;8.48;;;2.80;99.90;;;;;;5073369;28;20712;-69
2021/12/04 06:50:03;;;;;;;12.20;9.30;;;2.80;99.90;;;;;;5072632;28;20726;-69
2021/12/04 06:52:30;;;;;;;11.65;9.88;;;2.80;99.90;;;;;;5073288;28;20606;-69
2021/12/04 06:54:59;;;;;;;10.65;8.38;;;2.80;99.90;;;;;;5072977;28;20282;-69
2021/12/04 06:57:28;;;;;;;11.73;8.95;;;2.80;99.90;;;;;;5072540;28;20215;-69
2021/12/04 06:59:56;;;;;;;12.75;9.38;;;2.80;99.90;;;;;;5073089;28;20219;-69
2021/12/04 07:02:22;;;;;;;14.50;10.63;;;2.90;99.90;;;;;;5071460;28;20224;-69
2021/12/04 07:04:49;;;;;;;11.00;8.70;;;2.80;99.90;;;;;;5076857;28;20256;-69
2021/12/04 07:07:16;;;;;;;12.77;9.23;;;2.90;99.90;;;;;;5079831;28;20260;-69
2021/12/04 07:09:43;;;;;;;11.90;9.40;;;2.90;99.90;;;;;;5079467;28;20202;-69
2021/12/04 07:12:11;;;;;;;12.13;9.60;;;2.90;99.90;;;;;;5079938;28;20195;-69
2021/12/04 07:14:38;;;;;;;12.70;9.57;;;2.90;99.90;;;;;;5077962;28;20655;-69
2021/12/04 07:17:07;;;;;;;12.38;9.90;;;3.00;99.90;;;;;;5077964;28;20204;-69
2021/12/04 07:19:34;;;;;;;13.18;9.50;;;3.00;99.90;;;;;;5078427;28;20203;-69
2021/12/04 07:22:02;;;;;;;11.63;9.35;;;3.00;99.90;;;;;;5079438;28;20211;-69
2021/12/04 07:24:31;;;;;;;12.30;10.35;;;3.00;99.90;;;;;;5079010;28;20200;-69
2021/12/04 07:26:58;;;;;;;11.27;8.88;;;3.00;99.90;;;;;;5079520;28;20195;-69
2021/12/04 07:29:25;;;;;;;11.20;8.50;;;3.00;99.90;;;;;;5077976;28;20221;-69
2021/12/04 07:31:52;;;;;;;14.02;8.85;;;3.10;99.90;;;;;;5077848;28;20588;-69
2021/12/04 07:34:18;;;;;;;12.50;9.57;;;3.00;99.90;;;;;;5079090;28;20206;-69
2021/12/04 07:36:45;;;;;;;12.43;8.50;;;3.00;99.90;;;;;;5079340;28;20253;-69
2021/12/04 07:39:11;;;;;;;15.88;10.13;;;3.10;99.90;;;;;;5079423;28;20208;-69
2021/12/04 07:41:42;;;;;;;16.20;9.93;;;3.10;99.90;;;;;;5079152;28;20215;-69
2021/12/04 07:44:16;;;;;;;15.77;10.68;;;3.10;99.90;;;;;;5079293;28;20237;-69
2021/12/04 07:46:42;;;;;;;16.17;12.18;;;3.10;99.90;;;;;;5079212;28;20195;-69
2021/12/04 07:49:09;;;;;;;14.00;10.18;;;3.20;99.90;;;;;;5077604;28;20608;-69
2021/12/04 07:51:35;;;;;;;18.02;12.73;;;3.20;99.90;;;;;;5079294;28;20249;-69
2021/12/04 07:54:02;;;;;;;14.65;10.55;;;3.20;99.90;;;;;;5079024;28;20289;-69
2021/12/04 07:56:29;;;;;;;14.63;11.15;;;3.20;99.90;;;;;;5078759;28;20204;-69
2021/12/04 07:58:56;;;;;;;17.13;11.40;;;3.30;99.90;;;;;;5078814;28;20199;-69
2021/12/04 08:01:23;;;;;;;16.33;10.30;;;3.30;99.90;;;;;;5079009;28;20199;-69
2021/12/04 08:03:50;;;;;;;15.45;11.88;;;3.30;99.90;;;;;;5078946;28;20269;-69
2021/12/04 08:06:16;;;;;;;17.95;13.77;;;3.40;99.90;;;;;;5079265;28;20195;-69
2021/12/04 08:08:43;;;;;;;20.40;12.77;;;3.40;99.90;;;;;;5077584;28;20199;-69
2021/12/04 08:11:09;;;;;;;15.00;11.18;;;3.50;99.90;;;;;;5078505;28;20203;-69
2021/12/04 08:13:36;;;;;;;19.13;13.05;;;3.50;99.90;;;;;;5077903;28;20272;-69
2021/12/04 08:16:02;;;;;;;16.15;11.77;;;3.50;99.90;;;;;;5054653;28;20258;-69
2021/12/04 08:18:29;;;;;;;15.50;11.18;;;3.50;99.90;;;;;;5054851;28;20246;-70
2021/12/04 08:20:55;;;;;;;19.25;13.05;;;3.60;99.90;;;;;;5055972;28;20513;-69
2021/12/04 08:23:22;;;;;;;17.55;11.80;;;3.60;99.90;;;;;;5055621;28;20699;-69
2021/12/04 08:25:49;;;;;;;14.93;11.63;;;3.60;99.90;;;;;;5055720;28;20201;-69
2021/12/04 08:28:18;;;;;;;15.85;12.40;;;3.70;99.90;;;;;;5055416;28;20204;-69
2021/12/04 08:30:45;;;;;;;18.33;12.45;;;3.60;99.90;;;;;;5055275;28;20668;-69
2021/12/04 08:33:13;;;;;;;19.95;12.32;;;3.70;99.90;;;;;;5053785;28;20246;-69
2021/12/04 08:35:40;;;;;;;21.40;14.27;;;3.80;99.90;;;;;;5055307;28;20204;-69
2021/12/04 08:38:09;;;;;;;18.48;13.13;;;3.80;99.90;;;;;;5055709;28;20561;-69
2021/12/04 08:40:37;;;;;;;18.17;12.88;;;3.80;99.90;;;;;;5055249;28;20680;-69
2021/12/04 08:43:04;;;;;;;15.93;11.75;;;3.80;99.90;;;;;;5055245;28;20262;-69
2021/12/04 08:45:31;;;;;;;17.98;13.40;;;3.80;99.90;;;;;;5055316;28;20196;-69
2021/12/04 08:47:57;;;;;;;20.55;13.07;;;3.90;99.90;;;;;;5055051;28;20545;-69
2021/12/04 08:50:28;;;;;;;29.73;16.38;;;3.90;99.90;;;;;;5054729;28;20707;-69
2021/12/04 08:52:56;;;;;;;19.85;13.25;;;3.90;99.90;;;;;;5054839;28;20189;-69
2021/12/04 08:55:23;;;;;;;13.85;9.13;;;4.00;99.90;;;;;;5055139;28;20212;-69
2021/12/04 08:57:50;;;;;;;11.65;10.25;;;4.00;99.90;;;;;;5054999;28;20258;-68
2021/12/04 09:00:24;;;;;;;14.75;10.43;;;4.00;99.90;;;;;;5054872;28;20209;-68
2021/12/04 09:02:51;;;;;;;17.35;11.98;;;4.00;99.90;;;;;;5054776;28;20212;-68
2021/12/04 09:05:19;;;;;;;14.65;10.52;;;4.10;99.90;;;;;;5054840;28;20201;-67
2021/12/04 09:07:46;;;;;;;12.52;8.85;;;4.20;99.90;;;;;;5054687;28;20636;-67
2021/12/04 09:10:14;;;;;;;17.75;10.23;;;4.10;99.90;;;;;;5054604;28;20721;-69
2021/12/04 09:12:42;;;;;;;14.27;10.40;;;4.20;99.90;;;;;;5054908;28;20596;-69
2021/12/04 09:15:13;;;;;;;16.90;11.90;;;4.20;99.90;;;;;;5054514;28;20285;-68
2021/12/04 09:17:39;;;;;;;13.93;10.23;;;4.30;99.90;;;;;;5054369;28;20212;-68
2021/12/04 09:20:07;;;;;;;13.25;10.32;;;4.30;99.90;;;;;;5053432;28;20200;-68
2021/12/04 09:22:36;;;;;;;17.05;13.02;;;4.30;99.90;;;;;;5053972;28;20216;-67
2021/12/04 09:25:11;;;;;;;18.35;14.13;;;4.30;99.90;;;;;;5054644;28;20208;-67
2021/12/04 10:05:59;;;;;;;8.25;7.20;;;4.50;99.90;;;;;;5053776;28;20717;-68
2021/12/04 10:14:46;;;;;;;15.85;11.43;;;4.60;99.90;;;;;;5051458;28;20200;-68
2021/12/04 10:19:55;;;;;;;16.90;11.10;;;4.70;99.90;;;;;;5053303;28;20640;-68
2021/12/04 10:22:29;;;;;;;12.68;9.40;;;4.80;99.90;;;;;;5053318;28;20212;-68
2021/12/04 10:33:42;;;;;;;11.60;7.95;;;4.90;99.90;;;;;;5053115;28;20189;-69
2021/12/04 10:36:09;;;;;;;8.38;7.50;;;4.90;99.90;;;;;;5052100;28;20200;-68
2021/12/04 10:38:41;;;;;;;9.02;8.05;;;4.90;99.90;;;;;;5052962;28;20269;-68
2021/12/04 10:41:08;;;;;;;10.45;8.05;;;5.00;99.90;;;;;;5053172;28;20237;-68
2021/12/04 10:43:36;;;;;;;10.23;8.48;;;4.90;99.90;;;;;;5053389;28;20269;-68
2021/12/04 10:46:16;;;;;;;8.82;7.00;;;4.90;99.90;;;;;;5053013;28;20204;-68
2021/12/04 10:48:49;;;;;;;10.90;8.38;;;4.90;99.90;;;;;;5053043;28;20227;-68
2021/12/04 10:53:48;;;;;;;13.82;11.95;;;4.90;99.90;;;;;;5052954;28;20217;-69
2021/12/04 10:56:36;;;;;;;9.60;8.63;;;4.90;99.90;;;;;;5052939;28;20203;-68
2021/12/04 10:59:20;;;;;;;9.80;8.00;;;4.90;99.90;;;;;;5052748;28;20208;-68
2021/12/04 11:04:38;;;;;;;8.27;7.47;;;5.00;99.90;;;;;;5052741;28;20270;-69
2021/12/04 11:18:37;;;;;;;12.10;10.68;;;5.00;99.90;;;;;;5052662;28;20181;-68
2021/12/04 11:18:51;;;;;;;9.43;8.18;;;5.00;99.90;;;;;;5040529;28;20209;-68
2021/12/04 11:21:45;;;;;;;12.05;9.20;;;5.00;99.90;;;;;;5051756;28;20200;-68
2021/12/04 11:25:20;;;;;;;9.63;8.30;;;5.10;99.90;;;;;;5052514;28;20219;-68
2021/12/04 11:27:26;;;;;;;10.85;7.60;;;5.20;99.90;;;;;;5051765;28;20207;-68
2021/12/04 11:38:14;;;;;;;10.93;9.85;;;5.40;99.90;;;;;;5052369;28;20205;-68
2021/12/04 11:43:18;;;;;;;5.18;4.78;;;5.50;99.90;;;;;;5052394;28;20267;-69
2021/12/04 11:48:34;;;;;;;4.70;4.30;;;5.50;99.90;;;;;;5052747;28;20181;-68
2021/12/04 11:51:03;;;;;;;6.03;5.43;;;5.60;99.90;;;;;;5052292;28;20228;-69
2021/12/04 11:53:32;;;;;;;5.75;5.15;;;5.60;99.90;;;;;;5055015;28;20658;-69
2021/12/04 11:55:59;;;;;;;8.35;5.30;;;5.70;99.90;;;;;;5056203;28;20209;-69
2021/12/04 11:58:33;;;;;;;10.77;6.70;;;5.70;99.90;;;;;;5054758;28;20204;-69
2021/12/04 12:01:05;;;;;;;9.18;6.28;;;5.70;99.90;;;;;;5069761;28;20307;-68
2021/12/04 12:03:36;;;;;;;5.55;5.05;;;5.70;99.90;;;;;;5077833;28;20264;-67
2021/12/04 12:06:06;;;;;;;9.07;6.50;;;5.70;99.90;;;;;;5074342;28;20215;-69
2021/12/04 12:08:42;;;;;;;7.40;6.68;;;5.70;99.90;;;;;;5075365;28;20204;-69
2021/12/04 12:11:11;;;;;;;11.05;8.25;;;5.70;99.90;;;;;;5075930;28;20188;-69
2021/12/04 12:13:44;;;;;;;11.35;9.50;;;5.70;99.90;;;;;;5075828;28;20219;-68
2021/12/04 12:16:23;;;;;;;16.65;9.70;;;5.70;99.90;;;;;;5075677;28;20211;-68
2021/12/04 12:19:04;;;;;;;12.10;9.05;;;5.70;99.90;;;;;;5075769;28;20211;-68
2021/12/04 12:21:43;;;;;;;13.85;10.50;;;5.80;99.90;;;;;;5075658;28;20276;-68
2021/12/04 12:36:06;;;;;;;20.30;14.38;;;5.90;99.90;;;;;;5075253;28;20631;-69
2021/12/04 12:38:36;;;;;;;17.70;13.57;;;5.90;99.90;;;;;;5075434;28;20211;-68
2021/12/04 12:41:11;;;;;;;16.77;13.25;;;5.90;99.90;;;;;;5074753;28;20207;-68
2021/12/04 12:43:40;;;;;;;17.20;11.93;;;5.90;99.90;;;;;;5075408;28;20661;-68
2021/12/04 12:46:07;;;;;;;11.07;8.90;;;5.90;99.90;;;;;;5075406;28;20200;-69
2021/12/04 12:48:53;;;;;;;10.38;8.80;;;6.00;99.90;;;;;;5075128;28;20192;-69
2021/12/04 12:51:29;;;;;;;9.55;8.55;;;6.00;99.90;;;;;;5074874;28;20223;-69
2021/12/04 12:53:57;;;;;;;13.20;10.05;;;6.00;99.90;;;;;;5075045;28;20256;-68
2021/12/04 12:56:27;;;;;;;18.08;13.02;;;6.00;99.90;;;;;;5075266;28;20200;-69
2021/12/04 12:59:02;;;;;;;15.63;11.48;;;6.00;99.90;;;;;;5075253;28;20659;-67
2021/12/04 13:13:36;;;;;;;29.75;19.23;;;6.30;99.90;;;;;;5074666;28;20187;-68
2021/12/04 13:16:19;;;;;;;19.90;16.63;;;6.30;99.90;;;;;;5074794;28;20222;-68
2021/12/04 13:18:56;;;;;;;26.63;19.38;;;6.30;99.90;;;;;;5074590;28;20192;-68
2021/12/04 13:21:24;;;;;;;19.02;15.38;;;6.20;99.90;;;;;;5074869;28;20215;-68
2021/12/04 13:23:53;;;;;;;23.85;18.08;;;6.20;99.90;;;;;;5073250;28;20702;-68
2021/12/04 13:26:30;;;;;;;19.08;15.52;;;6.20;99.90;;;;;;5074376;28;20200;-69
2021/12/04 13:28:59;;;;;;;15.18;10.63;;;6.20;99.90;;;;;;5075024;28;20195;-68
2021/12/04 13:31:27;;;;;;;16.05;14.30;;;6.30;99.90;;;;;;5075159;28;20569;-69
2021/12/04 13:33:55;;;;;;;22.30;16.00;;;6.40;99.90;;;;;;5074772;28;20226;-69
2021/12/04 13:36:27;;;;;;;22.15;17.08;;;6.50;99.90;;;;;;5074571;28;20207;-69
2021/12/04 13:39:08;;;;;;;32.40;28.95;;;6.50;99.90;;;;;;5074465;28;20184;-67
2021/12/04 13:41:40;;;;;;;33.30;26.92;;;6.60;99.90;;;;;;5074899;28;20184;-69
2021/12/04 13:44:09;;;;;;;28.98;21.63;;;6.70;99.90;;;;;;5074412;28;20230;-68
2021/12/04 13:46:59;;;;;;;35.00;29.35;;;6.80;99.90;;;;;;5074239;28;20200;-67
2021/12/04 13:49:56;;;;;;;77.60;62.83;;;7.00;99.90;;;;;;5073928;28;20342;-68
2021/12/04 13:52:27;;;;;;;20.50;17.20;;;7.30;99.90;;;;;;5073422;28;20211;-68
2021/12/04 13:54:58;;;;;;;19.75;17.65;;;7.40;99.90;;;;;;5074386;28;20243;-69
2021/12/04 13:57:25;;;;;;;12.95;11.57;;;7.50;99.90;;;;;;5074292;28;20189;-69
2021/12/04 13:59:58;;;;;;;9.02;8.07;;;7.60;99.90;;;;;;5074322;28;20204;-69
2021/12/04 14:02:28;;;;;;;5.97;5.38;;;7.80;99.90;;;;;;5073799;28;20198;-69
2021/12/04 14:05:11;;;;;;;4.85;3.40;;;8.10;99.90;;;;;;5074145;28;20231;-69
2021/12/04 14:07:37;;;;;;;9.70;8.20;;;8.40;99.90;;;;;;5073662;28;20256;-69
2021/12/04 14:10:26;;;;;;;1.70;1.60;;;8.70;99.90;;;;;;5074031;28;20247;-69
2021/12/04 14:12:54;;;;;;;8.15;7.45;;;8.80;99.90;;;;;;5073593;28;20211;-68
2021/12/04 14:15:22;;;;;;;4.68;4.38;;;8.80;99.90;;;;;;5073774;28;20588;-69
2021/12/04 14:18:10;;;;;;;11.05;4.10;;;8.90;99.90;;;;;;5056212;28;20208;-69
2021/12/04 14:20:41;;;;;;;4.38;4.00;;;8.90;99.90;;;;;;5073396;28;20670;-69
2021/12/04 14:23:08;;;;;;;6.45;6.05;;;9.00;99.90;;;;;;5073526;28;20196;-69
2021/12/04 14:25:42;;;;;;;5.65;5.18;;;9.00;99.90;;;;;;5073952;28;20244;-69
2021/12/04 14:28:18;;;;;;;4.88;4.47;;;9.00;99.90;;;;;;5073690;28;20199;-69
2021/12/04 14:30:46;;;;;;;7.30;6.38;;;8.90;99.90;;;;;;5073658;28;20676;-69
2021/12/04 14:33:19;;;;;;;3.33;3.13;;;8.90;99.90;;;;;;5073620;28;20199;-69
2021/12/04 14:35:49;;;;;;;3.78;3.55;;;8.90;99.90;;;;;;5073820;28;20221;-69
2021/12/04 14:38:19;;;;;;;3.40;3.20;;;8.90;99.90;;;;;;5073468;28;20724;-69
2021/12/04 14:40:53;;;;;;;3.60;2.90;;;8.90;99.90;;;;;;5073265;28;20208;-69
2021/12/04 14:43:23;;;;;;;3.47;2.65;;;8.90;99.90;;;;;;5073421;28;20212;-69
2021/12/04 14:45:55;;;;;;;4.85;3.65;;;9.00;99.90;;;;;;5073183;28;20608;-68
2021/12/04 14:48:30;;;;;;;2.63;1.75;;;9.00;99.90;;;;;;5073143;28;20222;-69
2021/12/04 14:51:05;;;;;;;2.33;2.13;;;9.10;99.90;;;;;;5072888;28;20703;-68
2021/12/04 14:53:39;;;;;;;4.30;2.15;;;9.10;99.90;;;;;;5072844;28;20596;-70
2021/12/04 14:56:08;;;;;;;2.38;1.27;;;9.10;99.90;;;;;;5073026;28;20615;-69
2021/12/04 14:58:34;;;;;;;1.33;1.27;;;9.10;99.90;;;;;;5073085;28;20675;-69
2021/12/04 15:01:07;;;;;;;1.83;1.73;;;9.10;99.90;;;;;;5071817;28;20196;-69
2021/12/04 15:03:56;;;;;;;1.65;1.55;;;9.10;99.90;;;;;;5072866;28;20216;-69
2021/12/04 15:06:25;;;;;;;1.33;1.27;;;9.10;99.90;;;;;;5072711;28;20195;-69
2021/12/04 15:09:10;;;;;;;1.70;1.60;;;9.10;99.90;;;;;;5072984;28;20208;-69
2021/12/04 15:11:39;;;;;;;1.73;1.63;;;9.10;99.90;;;;;;5072827;28;20200;-69
2021/12/04 15:14:31;;;;;;;1.60;1.50;;;9.10;99.90;;;;;;5072731;28;20683;-68
2021/12/04 15:17:05;;;;;;;1.85;1.73;;;9.10;99.90;;;;;;5072700;28;20546;-69
2021/12/04 15:19:42;;;;;;;1.80;1.70;;;9.20;99.90;;;;;;5072722;28;20225;-69
2021/12/04 15:22:30;;;;;;;4.07;1.33;;;9.20;99.90;;;;;;5072780;28;20241;-70
2021/12/04 15:24:57;;;;;;;1.63;1.52;;;9.20;99.90;;;;;;5073985;28;20216;-68
2021/12/04 15:27:27;;;;;;;1.45;1.30;;;9.20;99.90;;;;;;5076968;28;20244;-69
2021/12/04 15:29:54;;;;;;;2.00;1.17;;;9.20;99.90;;;;;;5077057;28;20543;-68
2021/12/04 15:32:24;;;;;;;1.23;1.15;;;9.20;99.90;;;;;;5076914;28;20664;-68
2021/12/04 15:34:59;;;;;;;1.80;1.33;;;9.30;99.90;;;;;;5075658;28;20683;-68
2021/12/04 15:37:43;;;;;;;2.03;1.67;;;9.30;99.90;;;;;;5076827;28;20210;-69
2021/12/04 15:40:45;;;;;;;9.55;3.33;;;9.10;99.90;;;;;;5076773;28;20252;-68
2021/12/04 15:43:28;;;;;;;2.58;1.50;;;9.20;99.90;;;;;;5076707;28;20217;-69
2021/12/04 15:46:10;;;;;;;3.15;1.63;;;9.20;99.90;;;;;;5076587;28;20198;-69
2021/12/04 15:54:12;;;;;;;2.25;2.13;;;9.20;99.90;;;;;;5076001;28;20224;-69
2021/12/04 15:56:48;;;;;;;2.55;2.22;;;9.20;99.90;;;;;;5075020;28;20269;-69
2021/12/04 15:59:28;;;;;;;1.73;1.63;;;9.20;99.90;;;;;;5076356;28;20207;-69
2021/12/04 16:01:58;;;;;;;1.10;1.00;;;9.20;99.90;;;;;;5076273;28;20188;-69
2021/12/04 16:04:33;;;;;;;0.90;0.88;;;9.30;99.90;;;;;;5075787;28;20224;-69
2021/12/04 16:07:01;;;;;;;1.60;1.27;;;9.30;99.90;;;;;;5075729;28;20670;-69
2021/12/04 16:09:38;;;;;;;1.85;1.17;;;9.30;99.90;;;;;;5075721;28;20200;-69